logo
Search for airport 
image banner adimage banner adimage banner ad
image banner ad

HKKI - Kisumu

Located in Kisumu, Kenya

ICAO - HKKI, IATA - KIS

Data provided by Airmate  

General information

Coordinates: S0°5'9" E34°43'44"
Elevation is 3795 feet MSL.
Magnetic variation is 1° East
View others Airports in Nyanza Province

Operational data

Special qualification required
Current time UTC:
Current local time:
Weather
METAR: HKKI 251600Z 32009KT 9999 FEW023CB BKN080 24/18 Q1016
TAF: TAF HKKI 251700Z 2518/2624 06005KT 9999 SCT019 BKN080 BECMG 2608/2611 21010KT FEW026CB SCT027 TEMPO 2613/2617 -TSRA FEW021CB SCT021 BKN080 BECMG 2621/2624 17005KT NSW FEW019 SCT080
View NOTAMs / SUP AIP / TFR affecting this airport [VIEW]
Communications frequencies: [VIEW]

Runways:

RWY identifierQFULength (ft)Width (ft)SurfaceLDA (ft)
0662°9350146ASPH9843
24242°9350146ASPH10312

Airport contact information

Satellite view of HKKI